sensor_id;sensor_type;location;lat;lon;timestamp;temperature;humidity
18797;DHT22;9526;52.612;13.300;2023-12-20T00:01:33;7.80;99.90
18797;DHT22;9526;52.612;13.300;2023-12-20T00:03:56;7.80;99.90
18797;DHT22;9526;52.612;13.300;2023-12-20T00:06:20;7.80;99.90
18797;DHT22;9526;52.612;13.300;2023-12-20T00:08:45;7.70;99.90
18797;DHT22;9526;52.612;13.300;2023-12-20T00:11:09;7.70;99.90
18797;DHT22;9526;52.612;13.300;2023-12-20T00:13:34;7.70;99.90
18797;DHT22;9526;52.612;13.300;2023-12-20T00:15:58;7.70;99.90
18797;DHT22;9526;52.612;13.300;2023-12-20T00:18:22;7.70;99.90
18797;DHT22;9526;52.612;13.300;2023-12-20T00:20:46;7.70;99.90
18797;DHT22;9526;52.612;13.300;2023-12-20T00:23:10;7.70;99.90
18797;DHT22;9526;52.612;13.300;2023-12-20T00:25:35;7.70;99.90
18797;DHT22;9526;52.612;13.300;2023-12-20T00:27:58;7.80;99.90
18797;DHT22;9526;52.612;13.300;2023-12-20T00:30:23;7.80;99.90
18797;DHT22;9526;52.612;13.300;2023-12-20T00:32:46;7.80;99.90
18797;DHT22;9526;52.612;13.300;2023-12-20T00:35:10;7.80;99.90
18797;DHT22;9526;52.612;13.300;2023-12-20T00:37:34;7.80;99.90
18797;DHT22;9526;52.612;13.300;2023-12-20T00:39:57;7.80;99.90
18797;DHT22;9526;52.612;13.300;2023-12-20T00:42:21;7.70;99.90
18797;DHT22;9526;52.612;13.300;2023-12-20T00:44:45;7.70;99.90
18797;DHT22;9526;52.612;13.300;2023-12-20T00:47:10;7.70;99.90
18797;DHT22;9526;52.612;13.300;2023-12-20T00:49:34;7.70;99.90
18797;DHT22;9526;52.612;13.300;2023-12-20T00:51:57;7.70;99.90
18797;DHT22;9526;52.612;13.300;2023-12-20T00:54:21;7.80;99.90
18797;DHT22;9526;52.612;13.300;2023-12-20T00:56:45;7.80;99.90
18797;DHT22;9526;52.612;13.300;2023-12-20T00:59:08;7.70;99.90
18797;DHT22;9526;52.612;13.300;2023-12-20T01:01:32;7.80;99.90
18797;DHT22;9526;52.612;13.300;2023-12-20T01:03:58;7.80;99.90
18797;DHT22;9526;52.612;13.300;2023-12-20T01:06:21;7.80;99.90
18797;DHT22;9526;52.612;13.300;2023-12-20T01:08:45;7.80;99.90
18797;DHT22;9526;52.612;13.300;2023-12-20T01:11:09;7.70;99.90
18797;DHT22;9526;52.612;13.300;2023-12-20T01:13:33;7.80;99.90
18797;DHT22;9526;52.612;13.300;2023-12-20T01:15:56;7.80;99.90
18797;DHT22;9526;52.612;13.300;2023-12-20T01:18:20;7.70;99.90
18797;DHT22;9526;52.612;13.300;2023-12-20T01:20:45;7.80;99.90
18797;DHT22;9526;52.612;13.300;2023-12-20T01:23:09;7.80;99.90
18797;DHT22;9526;52.612;13.300;2023-12-20T01:25:33;7.80;99.90
18797;DHT22;9526;52.612;13.300;2023-12-20T01:27:56;7.80;99.90
18797;DHT22;9526;52.612;13.300;2023-12-20T01:30:20;7.80;99.90
18797;DHT22;9526;52.612;13.300;2023-12-20T01:32:44;7.80;99.90
18797;DHT22;9526;52.612;13.300;2023-12-20T01:35:08;7.80;99.90
18797;DHT22;9526;52.612;13.300;2023-12-20T01:37:33;7.80;99.90
18797;DHT22;9526;52.612;13.300;2023-12-20T01:39:57;7.80;99.90
18797;DHT22;9526;52.612;13.300;2023-12-20T01:42:20;7.70;99.90
18797;DHT22;9526;52.612;13.300;2023-12-20T01:44:45;7.70;99.90
18797;DHT22;9526;52.612;13.300;2023-12-20T01:47:10;7.80;99.90
18797;DHT22;9526;52.612;13.300;2023-12-20T01:49:33;7.70;99.90
18797;DHT22;9526;52.612;13.300;2023-12-20T01:51:57;7.70;99.90
18797;DHT22;9526;52.612;13.300;2023-12-20T01:54:23;7.80;99.90
18797;DHT22;9526;52.612;13.300;2023-12-20T01:56:47;7.70;99.90
18797;DHT22;9526;52.612;13.300;2023-12-20T01:59:11;7.80;99.90
18797;DHT22;9526;52.612;13.300;2023-12-20T02:01:35;7.80;99.90
18797;DHT22;9526;52.612;13.300;2023-12-20T02:03:59;7.80;99.90
18797;DHT22;9526;52.612;13.300;2023-12-20T02:06:24;7.80;99.90
18797;DHT22;9526;52.612;13.300;2023-12-20T02:08:53;7.80;99.90
18797;DHT22;9526;52.612;13.300;2023-12-20T02:11:18;7.80;99.90
18797;DHT22;9526;52.612;13.300;2023-12-20T02:13:42;7.70;99.90
18797;DHT22;9526;52.612;13.300;2023-12-20T02:16:06;7.70;99.90
18797;DHT22;9526;52.612;13.300;2023-12-20T02:18:30;7.70;99.90
18797;DHT22;9526;52.612;13.300;2023-12-20T02:20:54;7.70;99.90
18797;DHT22;9526;52.612;13.300;2023-12-20T02:23:19;7.70;99.90
18797;DHT22;9526;52.612;13.300;2023-12-20T02:25:43;7.70;99.90
18797;DHT22;9526;52.612;13.300;2023-12-20T02:28:07;7.70;99.90
18797;DHT22;9526;52.612;13.300;2023-12-20T02:30:31;7.60;99.90
18797;DHT22;9526;52.612;13.300;2023-12-20T02:32:54;7.60;99.90
18797;DHT22;9526;52.612;13.300;2023-12-20T02:35:19;7.60;99.90
18797;DHT22;9526;52.612;13.300;2023-12-20T02:37:43;7.50;99.90
18797;DHT22;9526;52.612;13.300;2023-12-20T02:40:09;7.50;99.90
18797;DHT22;9526;52.612;13.300;2023-12-20T02:42:33;7.50;99.90
18797;DHT22;9526;52.612;13.300;2023-12-20T02:44:57;7.40;99.90
18797;DHT22;9526;52.612;13.300;2023-12-20T02:47:20;7.40;99.90
18797;DHT22;9526;52.612;13.300;2023-12-20T02:49:44;7.40;99.90
18797;DHT22;9526;52.612;13.300;2023-12-20T02:52:08;7.40;99.90
18797;DHT22;9526;52.612;13.300;2023-12-20T02:54:32;7.40;99.90
18797;DHT22;9526;52.612;13.300;2023-12-20T02:56:57;7.40;99.90
18797;DHT22;9526;52.612;13.300;2023-12-20T02:59:20;7.30;99.90
18797;DHT22;9526;52.612;13.300;2023-12-20T03:01:45;7.30;99.90
18797;DHT22;9526;52.612;13.300;2023-12-20T03:04:09;7.20;99.90
18797;DHT22;9526;52.612;13.300;2023-12-20T03:06:33;7.20;99.90
18797;DHT22;9526;52.612;13.300;2023-12-20T03:08:57;7.20;99.90
18797;DHT22;9526;52.612;13.300;2023-12-20T03:11:21;7.20;99.90
18797;DHT22;9526;52.612;13.300;2023-12-20T03:13:46;7.20;99.90
18797;DHT22;9526;52.612;13.300;2023-12-20T03:16:10;7.10;99.90
18797;DHT22;9526;52.612;13.300;2023-12-20T03:18:33;7.20;99.90
18797;DHT22;9526;52.612;13.300;2023-12-20T03:20:57;7.10;99.90
18797;DHT22;9526;52.612;13.300;2023-12-20T03:23:21;7.00;99.90
18797;DHT22;9526;52.612;13.300;2023-12-20T03:25:44;7.00;99.90
18797;DHT22;9526;52.612;13.300;2023-12-20T03:28:09;7.00;99.90
18797;DHT22;9526;52.612;13.300;2023-12-20T03:30:34;7.00;99.90
18797;DHT22;9526;52.612;13.300;2023-12-20T03:32:57;7.00;99.90
18797;DHT22;9526;52.612;13.300;2023-12-20T03:35:21;6.90;99.90
18797;DHT22;9526;52.612;13.300;2023-12-20T03:37:45;6.90;99.90
18797;DHT22;9526;52.612;13.300;2023-12-20T03:40:09;6.90;99.90
18797;DHT22;9526;52.612;13.300;2023-12-20T03:42:33;6.90;99.90
18797;DHT22;9526;52.612;13.300;2023-12-20T03:44:57;6.90;99.90
18797;DHT22;9526;52.612;13.300;2023-12-20T03:47:22;6.90;99.90
18797;DHT22;9526;52.612;13.300;2023-12-20T03:49:46;6.90;99.90
18797;DHT22;9526;52.612;13.300;2023-12-20T03:52:10;6.90;99.90
18797;DHT22;9526;52.612;13.300;2023-12-20T03:54:35;6.90;99.90
18797;DHT22;9526;52.612;13.300;2023-12-20T03:56:59;6.90;99.90
18797;DHT22;9526;52.612;13.300;2023-12-20T03:59:22;6.90;99.90
18797;DHT22;9526;52.612;13.300;2023-12-20T04:01:46;6.90;99.90
18797;DHT22;9526;52.612;13.300;2023-12-20T04:04:12;6.90;99.90
18797;DHT22;9526;52.612;13.300;2023-12-20T04:06:36;6.90;99.90
18797;DHT22;9526;52.612;13.300;2023-12-20T04:09:00;6.90;99.90
18797;DHT22;9526;52.612;13.300;2023-12-20T04:11:23;6.90;99.90
18797;DHT22;9526;52.612;13.300;2023-12-20T04:13:47;6.90;99.90
18797;DHT22;9526;52.612;13.300;2023-12-20T04:16:11;6.90;99.90
18797;DHT22;9526;52.612;13.300;2023-12-20T04:18:35;6.90;99.90
18797;DHT22;9526;52.612;13.300;2023-12-20T04:21:00;6.90;99.90
18797;DHT22;9526;52.612;13.300;2023-12-20T04:23:23;6.90;99.90
18797;DHT22;9526;52.612;13.300;2023-12-20T04:25:47;6.90;99.90
18797;DHT22;9526;52.612;13.300;2023-12-20T04:28:11;6.90;99.90
18797;DHT22;9526;52.612;13.300;2023-12-20T04:30:34;6.90;99.90
18797;DHT22;9526;52.612;13.300;2023-12-20T04:32:58;6.80;99.90
18797;DHT22;9526;52.612;13.300;2023-12-20T04:35:22;6.80;99.90
18797;DHT22;9526;52.612;13.300;2023-12-20T04:37:47;6.80;99.90
18797;DHT22;9526;52.612;13.300;2023-12-20T04:40:11;6.70;99.90
18797;DHT22;9526;52.612;13.300;2023-12-20T04:42:35;6.70;99.90
18797;DHT22;9526;52.612;13.300;2023-12-20T04:44:59;6.60;99.90
18797;DHT22;9526;52.612;13.300;2023-12-20T04:47:22;6.50;99.90
18797;DHT22;9526;52.612;13.300;2023-12-20T04:49:46;6.50;99.90
18797;DHT22;9526;52.612;13.300;2023-12-20T04:52:10;6.40;99.90
18797;DHT22;9526;52.612;13.300;2023-12-20T04:54:35;6.40;99.90
18797;DHT22;9526;52.612;13.300;2023-12-20T04:56:58;6.40;99.90
18797;DHT22;9526;52.612;13.300;2023-12-20T04:59:21;6.40;99.90
18797;DHT22;9526;52.612;13.300;2023-12-20T05:01:45;6.30;99.90
18797;DHT22;9526;52.612;13.300;2023-12-20T05:04:08;6.30;99.90
18797;DHT22;9526;52.612;13.300;2023-12-20T05:06:32;6.30;99.90
18797;DHT22;9526;52.612;13.300;2023-12-20T05:08:56;6.30;99.90
18797;DHT22;9526;52.612;13.300;2023-12-20T05:11:21;6.30;99.90
18797;DHT22;9526;52.612;13.300;2023-12-20T05:13:45;6.20;99.90
18797;DHT22;9526;52.612;13.300;2023-12-20T05:16:11;6.20;99.90
18797;DHT22;9526;52.612;13.300;2023-12-20T05:18:36;6.10;99.90
18797;DHT22;9526;52.612;13.300;2023-12-20T05:20:59;6.10;99.90
18797;DHT22;9526;52.612;13.300;2023-12-20T05:23:23;6.00;99.90
18797;DHT22;9526;52.612;13.300;2023-12-20T05:25:47;6.00;99.90
18797;DHT22;9526;52.612;13.300;2023-12-20T05:28:12;6.00;99.90
18797;DHT22;9526;52.612;13.300;2023-12-20T05:30:36;5.90;99.90
18797;DHT22;9526;52.612;13.300;2023-12-20T05:32:59;5.90;99.90
18797;DHT22;9526;52.612;13.300;2023-12-20T05:35:23;5.80;99.90
18797;DHT22;9526;52.612;13.300;2023-12-20T05:37:47;5.80;99.90
18797;DHT22;9526;52.612;13.300;2023-12-20T05:40:11;5.70;99.90
18797;DHT22;9526;52.612;13.300;2023-12-20T05:42:34;5.70;99.90
18797;DHT22;9526;52.612;13.300;2023-12-20T05:44:59;5.70;99.90
18797;DHT22;9526;52.612;13.300;2023-12-20T05:47:23;5.60;99.90
18797;DHT22;9526;52.612;13.300;2023-12-20T05:49:47;5.60;99.90
18797;DHT22;9526;52.612;13.300;2023-12-20T05:52:12;5.50;99.90
18797;DHT22;9526;52.612;13.300;2023-12-20T05:54:36;5.50;99.90
18797;DHT22;9526;52.612;13.300;2023-12-20T05:57:00;5.50;99.90
18797;DHT22;9526;52.612;13.300;2023-12-20T05:59:24;5.40;99.90
18797;DHT22;9526;52.612;13.300;2023-12-20T06:01:49;5.50;99.90
18797;DHT22;9526;52.612;13.300;2023-12-20T06:04:13;5.40;99.90
18797;DHT22;9526;52.612;13.300;2023-12-20T06:06:41;5.40;99.90
18797;DHT22;9526;52.612;13.300;2023-12-20T06:09:05;5.40;99.90
18797;DHT22;9526;52.612;13.300;2023-12-20T06:11:29;5.40;99.90
18797;DHT22;9526;52.612;13.300;2023-12-20T06:13:52;5.40;99.90
18797;DHT22;9526;52.612;13.300;2023-12-20T06:16:16;5.40;99.90
18797;DHT22;9526;52.612;13.300;2023-12-20T06:18:41;5.40;99.90
18797;DHT22;9526;52.612;13.300;2023-12-20T06:21:05;5.40;99.90
18797;DHT22;9526;52.612;13.300;2023-12-20T06:23:30;5.40;99.90
18797;DHT22;9526;52.612;13.300;2023-12-20T06:25:53;5.30;99.90
18797;DHT22;9526;52.612;13.300;2023-12-20T06:28:17;5.40;99.90
18797;DHT22;9526;52.612;13.300;2023-12-20T06:30:41;5.40;99.90
18797;DHT22;9526;52.612;13.300;2023-12-20T06:33:04;5.30;99.90
18797;DHT22;9526;52.612;13.300;2023-12-20T06:35:30;5.30;99.90
18797;DHT22;9526;52.612;13.300;2023-12-20T06:37:58;5.40;99.90
18797;DHT22;9526;52.612;13.300;2023-12-20T06:40:21;5.40;99.90
18797;DHT22;9526;52.612;13.300;2023-12-20T06:42:46;5.30;99.90
18797;DHT22;9526;52.612;13.300;2023-12-20T06:45:26;5.40;99.90
18797;DHT22;9526;52.612;13.300;2023-12-20T06:47:50;5.40;99.90
18797;DHT22;9526;52.612;13.300;2023-12-20T06:50:14;5.40;99.90
18797;DHT22;9526;52.612;13.300;2023-12-20T06:52:39;5.40;99.90
18797;DHT22;9526;52.612;13.300;2023-12-20T06:55:04;5.40;99.90
18797;DHT22;9526;52.612;13.300;2023-12-20T06:57:28;5.40;99.90
18797;DHT22;9526;52.612;13.300;2023-12-20T06:59:52;5.40;99.90
18797;DHT22;9526;52.612;13.300;2023-12-20T07:02:16;5.40;99.90
18797;DHT22;9526;52.612;13.300;2023-12-20T07:04:40;5.50;99.90
18797;DHT22;9526;52.612;13.300;2023-12-20T07:07:04;5.50;99.90
18797;DHT22;9526;52.612;13.300;2023-12-20T07:09:30;5.50;99.90
18797;DHT22;9526;52.612;13.300;2023-12-20T07:11:54;5.50;99.90
18797;DHT22;9526;52.612;13.300;2023-12-20T07:14:17;5.50;99.90
18797;DHT22;9526;52.612;13.300;2023-12-20T07:16:41;5.60;99.90
18797;DHT22;9526;52.612;13.300;2023-12-20T07:19:05;5.60;99.90
18797;DHT22;9526;52.612;13.300;2023-12-20T07:21:29;5.60;99.90
18797;DHT22;9526;52.612;13.300;2023-12-20T07:23:52;5.60;99.90
18797;DHT22;9526;52.612;13.300;2023-12-20T07:26:17;5.70;99.90
18797;DHT22;9526;52.612;13.300;2023-12-20T07:28:41;5.70;99.90
18797;DHT22;9526;52.612;13.300;2023-12-20T07:31:05;5.70;99.90
18797;DHT22;9526;52.612;13.300;2023-12-20T07:33:29;5.70;99.90
18797;DHT22;9526;52.612;13.300;2023-12-20T07:36:00;5.70;99.90
18797;DHT22;9526;52.612;13.300;2023-12-20T07:38:24;5.70;99.90
18797;DHT22;9526;52.612;13.300;2023-12-20T07:40:48;5.80;99.90
18797;DHT22;9526;52.612;13.300;2023-12-20T07:43:13;5.80;99.90
18797;DHT22;9526;52.612;13.300;2023-12-20T07:45:37;5.80;99.90
18797;DHT22;9526;52.612;13.300;2023-12-20T07:48:00;5.90;99.90
18797;DHT22;9526;52.612;13.300;2023-12-20T07:50:24;5.80;99.90
18797;DHT22;9526;52.612;13.300;2023-12-20T07:52:48;5.80;99.90
18797;DHT22;9526;52.612;13.300;2023-12-20T07:55:12;5.80;99.90
18797;DHT22;9526;52.612;13.300;2023-12-20T07:57:36;5.80;99.90
18797;DHT22;9526;52.612;13.300;2023-12-20T08:00:01;5.80;99.90
18797;DHT22;9526;52.612;13.300;2023-12-20T08:02:25;5.90;99.90
18797;DHT22;9526;52.612;13.300;2023-12-20T08:04:49;5.90;99.90
18797;DHT22;9526;52.612;13.300;2023-12-20T08:07:13;5.90;99.90
18797;DHT22;9526;52.612;13.300;2023-12-20T08:09:37;5.90;99.90
18797;DHT22;9526;52.612;13.300;2023-12-20T08:12:00;5.90;99.90
18797;DHT22;9526;52.612;13.300;2023-12-20T08:14:24;5.90;99.90
18797;DHT22;9526;52.612;13.300;2023-12-20T08:16:49;5.90;99.90
18797;DHT22;9526;52.612;13.300;2023-12-20T08:19:13;6.00;99.90
18797;DHT22;9526;52.612;13.300;2023-12-20T08:21:37;6.00;99.90
18797;DHT22;9526;52.612;13.300;2023-12-20T08:24:00;6.00;99.90
18797;DHT22;9526;52.612;13.300;2023-12-20T08:26:24;6.00;99.90
18797;DHT22;9526;52.612;13.300;2023-12-20T08:28:48;6.00;99.90
18797;DHT22;9526;52.612;13.300;2023-12-20T08:31:14;6.00;99.90
18797;DHT22;9526;52.612;13.300;2023-12-20T08:33:40;6.00;99.90
18797;DHT22;9526;52.612;13.300;2023-12-20T08:36:05;6.00;99.90
18797;DHT22;9526;52.612;13.300;2023-12-20T08:38:29;6.00;99.90
18797;DHT22;9526;52.612;13.300;2023-12-20T08:40:52;6.10;99.90
18797;DHT22;9526;52.612;13.300;2023-12-20T08:43:16;6.10;99.90
18797;DHT22;9526;52.612;13.300;2023-12-20T08:45:40;6.10;99.90
18797;DHT22;9526;52.612;13.300;2023-12-20T08:48:05;6.10;99.90
18797;DHT22;9526;52.612;13.300;2023-12-20T08:50:32;6.20;99.90
18797;DHT22;9526;52.612;13.300;2023-12-20T08:52:56;6.20;99.90
18797;DHT22;9526;52.612;13.300;2023-12-20T08:55:19;6.20;99.90
18797;DHT22;9526;52.612;13.300;2023-12-20T08:57:43;6.20;99.90
18797;DHT22;9526;52.612;13.300;2023-12-20T09:00:08;6.20;99.90
18797;DHT22;9526;52.612;13.300;2023-12-20T09:02:33;6.20;99.90
18797;DHT22;9526;52.612;13.300;2023-12-20T09:04:58;6.30;99.90
18797;DHT22;9526;52.612;13.300;2023-12-20T09:07:24;6.30;99.90
18797;DHT22;9526;52.612;13.300;2023-12-20T09:09:48;6.30;99.90
18797;DHT22;9526;52.612;13.300;2023-12-20T09:12:11;6.40;99.90
18797;DHT22;9526;52.612;13.300;2023-12-20T09:14:35;6.50;99.90
18797;DHT22;9526;52.612;13.300;2023-12-20T09:16:59;6.50;99.90
18797;DHT22;9526;52.612;13.300;2023-12-20T09:19:23;6.60;99.90
18797;DHT22;9526;52.612;13.300;2023-12-20T09:21:46;6.60;99.90
18797;DHT22;9526;52.612;13.300;2023-12-20T09:24:12;6.60;99.90
18797;DHT22;9526;52.612;13.300;2023-12-20T09:26:35;6.50;99.90
18797;DHT22;9526;52.612;13.300;2023-12-20T09:28:59;6.60;99.90
18797;DHT22;9526;52.612;13.300;2023-12-20T09:31:23;6.60;99.90
18797;DHT22;9526;52.612;13.300;2023-12-20T09:33:47;6.60;99.90
18797;DHT22;9526;52.612;13.300;2023-12-20T09:36:10;6.60;99.90
18797;DHT22;9526;52.612;13.300;2023-12-20T09:38:34;6.60;99.90
18797;DHT22;9526;52.612;13.300;2023-12-20T09:40:59;6.60;99.90
18797;DHT22;9526;52.612;13.300;2023-12-20T09:43:26;6.70;99.90
18797;DHT22;9526;52.612;13.300;2023-12-20T09:45:53;6.70;99.90
18797;DHT22;9526;52.612;13.300;2023-12-20T09:48:18;6.70;99.90
18797;DHT22;9526;52.612;13.300;2023-12-20T09:50:42;6.80;99.90
18797;DHT22;9526;52.612;13.300;2023-12-20T09:53:15;6.70;99.90
18797;DHT22;9526;52.612;13.300;2023-12-20T09:55:41;6.80;99.90
18797;DHT22;9526;52.612;13.300;2023-12-20T09:58:06;6.70;99.90
18797;DHT22;9526;52.612;13.300;2023-12-20T10:00:30;6.70;99.90
18797;DHT22;9526;52.612;13.300;2023-12-20T10:02:57;6.70;99.90
18797;DHT22;9526;52.612;13.300;2023-12-20T10:05:26;6.80;99.90
18797;DHT22;9526;52.612;13.300;2023-12-20T10:07:51;6.70;99.90
18797;DHT22;9526;52.612;13.300;2023-12-20T10:10:15;6.70;99.90
18797;DHT22;9526;52.612;13.300;2023-12-20T10:12:38;6.70;99.90
18797;DHT22;9526;52.612;13.300;2023-12-20T10:15:04;6.70;99.90
18797;DHT22;9526;52.612;13.300;2023-12-20T10:17:28;6.70;99.90
18797;DHT22;9526;52.612;13.300;2023-12-20T10:19:52;6.80;99.90
18797;DHT22;9526;52.612;13.300;2023-12-20T10:22:16;6.80;99.90
18797;DHT22;9526;52.612;13.300;2023-12-20T10:24:40;6.80;99.90
18797;DHT22;9526;52.612;13.300;2023-12-20T10:27:05;6.70;99.90
18797;DHT22;9526;52.612;13.300;2023-12-20T10:29:32;6.70;99.90
18797;DHT22;9526;52.612;13.300;2023-12-20T10:32:23;6.70;99.90
18797;DHT22;9526;52.612;13.300;2023-12-20T10:34:47;6.80;99.90
18797;DHT22;9526;52.612;13.300;2023-12-20T10:37:11;6.80;99.90
18797;DHT22;9526;52.612;13.300;2023-12-20T10:39:35;6.70;99.90
18797;DHT22;9526;52.612;13.300;2023-12-20T10:41:59;6.80;99.90
18797;DHT22;9526;52.612;13.300;2023-12-20T10:44:22;6.80;99.90
18797;DHT22;9526;52.612;13.300;2023-12-20T10:46:46;6.80;99.90
18797;DHT22;9526;52.612;13.300;2023-12-20T10:49:15;6.90;99.90
18797;DHT22;9526;52.612;13.300;2023-12-20T10:51:39;6.80;99.90
18797;DHT22;9526;52.612;13.300;2023-12-20T10:54:03;6.90;99.90
18797;DHT22;9526;52.612;13.300;2023-12-20T10:56:30;6.90;99.90
18797;DHT22;9526;52.612;13.300;2023-12-20T10:58:58;6.90;99.90
18797;DHT22;9526;52.612;13.300;2023-12-20T11:01:27;6.80;99.90
18797;DHT22;9526;52.612;13.300;2023-12-20T11:03:53;6.80;99.90
18797;DHT22;9526;52.612;13.300;2023-12-20T11:06:29;6.80;99.90
18797;DHT22;9526;52.612;13.300;2023-12-20T11:09:08;6.80;99.90
18797;DHT22;9526;52.612;13.300;2023-12-20T11:11:43;6.90;99.90
18797;DHT22;9526;52.612;13.300;2023-12-20T11:14:23;7.00;99.90
18797;DHT22;9526;52.612;13.300;2023-12-20T11:16:48;7.00;99.90
18797;DHT22;9526;52.612;13.300;2023-12-20T11:19:17;6.90;99.90
18797;DHT22;9526;52.612;13.300;2023-12-20T11:21:42;7.00;99.90
18797;DHT22;9526;52.612;13.300;2023-12-20T11:24:06;7.00;99.90
18797;DHT22;9526;52.612;13.300;2023-12-20T11:26:30;7.00;99.90
18797;DHT22;9526;52.612;13.300;2023-12-20T11:28:53;7.00;99.90
18797;DHT22;9526;52.612;13.300;2023-12-20T11:31:17;7.00;99.90
18797;DHT22;9526;52.612;13.300;2023-12-20T11:33:41;7.00;99.90
18797;DHT22;9526;52.612;13.300;2023-12-20T11:36:13;7.00;99.90
18797;DHT22;9526;52.612;13.300;2023-12-20T11:38:53;6.90;99.90
18797;DHT22;9526;52.612;13.300;2023-12-20T11:41:18;6.90;99.90
18797;DHT22;9526;52.612;13.300;2023-12-20T11:43:41;6.90;99.90
18797;DHT22;9526;52.612;13.300;2023-12-20T11:46:06;7.00;99.90
18797;DHT22;9526;52.612;13.300;2023-12-20T11:48:31;7.00;99.90
18797;DHT22;9526;52.612;13.300;2023-12-20T11:50:54;7.00;99.90
18797;DHT22;9526;52.612;13.300;2023-12-20T11:53:18;7.00;99.90
18797;DHT22;9526;52.612;13.300;2023-12-20T11:55:47;7.10;99.90
18797;DHT22;9526;52.612;13.300;2023-12-20T11:58:11;7.10;99.90
18797;DHT22;9526;52.612;13.300;2023-12-20T12:00:35;7.10;99.90
18797;DHT22;9526;52.612;13.300;2023-12-20T12:02:59;7.20;99.90
18797;DHT22;9526;52.612;13.300;2023-12-20T12:05:25;7.10;99.90
18797;DHT22;9526;52.612;13.300;2023-12-20T12:07:49;7.10;99.90
18797;DHT22;9526;52.612;13.300;2023-12-20T12:10:13;7.20;99.90
18797;DHT22;9526;52.612;13.300;2023-12-20T12:12:41;7.20;99.90
18797;DHT22;9526;52.612;13.300;2023-12-20T12:15:06;7.20;99.90
18797;DHT22;9526;52.612;13.300;2023-12-20T12:17:31;7.10;99.90
18797;DHT22;9526;52.612;13.300;2023-12-20T12:20:03;7.10;99.90
18797;DHT22;9526;52.612;13.300;2023-12-20T12:22:27;7.10;99.90
18797;DHT22;9526;52.612;13.300;2023-12-20T12:24:51;7.10;99.90
18797;DHT22;9526;52.612;13.300;2023-12-20T12:27:15;7.00;99.90
18797;DHT22;9526;52.612;13.300;2023-12-20T12:29:40;6.90;99.90
18797;DHT22;9526;52.612;13.300;2023-12-20T12:32:05;6.90;99.90
18797;DHT22;9526;52.612;13.300;2023-12-20T12:34:30;7.00;99.90
18797;DHT22;9526;52.612;13.300;2023-12-20T12:36:55;6.90;99.90
18797;DHT22;9526;52.612;13.300;2023-12-20T12:39:20;6.90;99.90
18797;DHT22;9526;52.612;13.300;2023-12-20T12:41:44;6.90;99.90
18797;DHT22;9526;52.612;13.300;2023-12-20T12:44:09;6.90;99.90
18797;DHT22;9526;52.612;13.300;2023-12-20T12:46:55;6.90;99.90
18797;DHT22;9526;52.612;13.300;2023-12-20T12:49:20;6.90;99.90
18797;DHT22;9526;52.612;13.300;2023-12-20T12:51:46;6.90;99.90
18797;DHT22;9526;52.612;13.300;2023-12-20T12:54:18;6.80;99.90
18797;DHT22;9526;52.612;13.300;2023-12-20T12:56:45;6.80;99.90
18797;DHT22;9526;52.612;13.300;2023-12-20T12:59:09;6.80;99.90
18797;DHT22;9526;52.612;13.300;2023-12-20T13:01:33;6.70;99.90
18797;DHT22;9526;52.612;13.300;2023-12-20T13:03:59;6.70;99.90
18797;DHT22;9526;52.612;13.300;2023-12-20T13:06:38;6.70;99.90
18797;DHT22;9526;52.612;13.300;2023-12-20T13:09:03;6.70;99.90
18797;DHT22;9526;52.612;13.300;2023-12-20T13:11:28;6.70;99.90
18797;DHT22;9526;52.612;13.300;2023-12-20T13:13:53;6.70;99.90
18797;DHT22;9526;52.612;13.300;2023-12-20T13:16:16;6.70;99.90
18797;DHT22;9526;52.612;13.300;2023-12-20T13:18:41;6.80;99.90
18797;DHT22;9526;52.612;13.300;2023-12-20T13:21:06;6.80;99.90
18797;DHT22;9526;52.612;13.300;2023-12-20T13:23:30;6.80;99.90
18797;DHT22;9526;52.612;13.300;2023-12-20T13:25:54;6.80;99.90
18797;DHT22;9526;52.612;13.300;2023-12-20T13:28:17;6.70;99.90
18797;DHT22;9526;52.612;13.300;2023-12-20T13:30:41;6.70;99.90
18797;DHT22;9526;52.612;13.300;2023-12-20T13:33:05;6.70;99.90
18797;DHT22;9526;52.612;13.300;2023-12-20T13:35:29;6.70;99.90
18797;DHT22;9526;52.612;13.300;2023-12-20T13:37:55;6.70;99.90
18797;DHT22;9526;52.612;13.300;2023-12-20T13:40:19;6.70;99.90
18797;DHT22;9526;52.612;13.300;2023-12-20T13:42:43;6.70;99.90
18797;DHT22;9526;52.612;13.300;2023-12-20T13:45:08;6.70;99.90
18797;DHT22;9526;52.612;13.300;2023-12-20T13:47:31;6.70;99.90
18797;DHT22;9526;52.612;13.300;2023-12-20T13:49:55;6.60;99.90
18797;DHT22;9526;52.612;13.300;2023-12-20T13:52:19;6.60;99.90
18797;DHT22;9526;52.612;13.300;2023-12-20T13:54:44;6.60;99.90
18797;DHT22;9526;52.612;13.300;2023-12-20T13:57:08;6.50;99.90
18797;DHT22;9526;52.612;13.300;2023-12-20T13:59:47;6.50;99.90
18797;DHT22;9526;52.612;13.300;2023-12-20T14:02:11;6.50;99.90
18797;DHT22;9526;52.612;13.300;2023-12-20T14:04:35;6.50;99.90
18797;DHT22;9526;52.612;13.300;2023-12-20T14:07:04;6.50;99.90
18797;DHT22;9526;52.612;13.300;2023-12-20T14:09:30;6.40;99.90
18797;DHT22;9526;52.612;13.300;2023-12-20T14:11:54;6.40;99.90
18797;DHT22;9526;52.612;13.300;2023-12-20T14:14:18;6.40;99.90
18797;DHT22;9526;52.612;13.300;2023-12-20T14:16:42;6.30;99.90
18797;DHT22;9526;52.612;13.300;2023-12-20T14:19:07;6.20;99.90
18797;DHT22;9526;52.612;13.300;2023-12-20T14:21:31;6.20;99.90
18797;DHT22;9526;52.612;13.300;2023-12-20T14:23:55;6.20;99.90
18797;DHT22;9526;52.612;13.300;2023-12-20T14:26:19;6.20;99.90
18797;DHT22;9526;52.612;13.300;2023-12-20T14:28:44;6.10;99.90
18797;DHT22;9526;52.612;13.300;2023-12-20T14:31:07;6.10;99.90
18797;DHT22;9526;52.612;13.300;2023-12-20T14:33:32;6.10;99.90
18797;DHT22;9526;52.612;13.300;2023-12-20T14:35:56;6.10;99.90
18797;DHT22;9526;52.612;13.300;2023-12-20T14:38:19;6.00;99.90
18797;DHT22;9526;52.612;13.300;2023-12-20T14:40:43;6.00;99.90
18797;DHT22;9526;52.612;13.300;2023-12-20T14:43:07;6.00;99.90
18797;DHT22;9526;52.612;13.300;2023-12-20T14:45:32;5.90;99.90
18797;DHT22;9526;52.612;13.300;2023-12-20T14:47:56;5.90;99.90
18797;DHT22;9526;52.612;13.300;2023-12-20T14:50:20;5.90;99.90
18797;DHT22;9526;52.612;13.300;2023-12-20T14:52:44;5.90;99.90
18797;DHT22;9526;52.612;13.300;2023-12-20T14:55:08;5.90;99.90
18797;DHT22;9526;52.612;13.300;2023-12-20T14:57:32;5.90;99.90
18797;DHT22;9526;52.612;13.300;2023-12-20T14:59:56;5.90;99.90
18797;DHT22;9526;52.612;13.300;2023-12-20T15:02:21;5.90;99.90
18797;DHT22;9526;52.612;13.300;2023-12-20T15:04:45;6.00;99.90
18797;DHT22;9526;52.612;13.300;2023-12-20T15:07:09;5.90;99.90
18797;DHT22;9526;52.612;13.300;2023-12-20T15:09:32;5.90;99.90
18797;DHT22;9526;52.612;13.300;2023-12-20T15:11:56;6.00;99.90
18797;DHT22;9526;52.612;13.300;2023-12-20T15:14:20;6.00;99.90
18797;DHT22;9526;52.612;13.300;2023-12-20T15:16:43;6.00;99.90
18797;DHT22;9526;52.612;13.300;2023-12-20T15:19:09;6.00;99.90
18797;DHT22;9526;52.612;13.300;2023-12-20T15:21:33;6.00;99.90
18797;DHT22;9526;52.612;13.300;2023-12-20T15:24:06;5.90;99.90
18797;DHT22;9526;52.612;13.300;2023-12-20T15:26:38;5.90;99.90
18797;DHT22;9526;52.612;13.300;2023-12-20T15:29:02;5.90;99.90